• Join FlightAware (Why Join?)
  • Login
  • US Flag 
Gobble Gobble! 
08:28AM EST


 

Airport Tracker/Info


-or-


 

Live Flight TrackerFlight Track Log ✈ SWA230 ✈ 25-Sep-2013 ✈ KMDW - KSDF

Flight Track Log - Related Links

Times and Time Zones

All times are in EDT time to prevent confusion due to time zone crossing. See the SWA230 flight status page for this flight to view local times or setup timezone preferences in your user account.

Time Position Orientation Groundspeed Altitude Reporting Facility
EDT Latitude Longitude Course Direction KTS MPH feet Rate Location/Type
02:24PM 41.8000 -87.7333 156° South 136 157 1,600  Level Chicago TRACON
02:26PM 41.7336 -87.6931 156° South 205 236 4,600 2,520 Climbing Chicago Center
02:27PM 41.6617 -87.6994 184° South 238 274 7,900 3,360 Climbing Chicago Center
02:28PM 41.5789 -87.7092 185° South 283 326 11,700 3,120 Climbing Chicago Center
02:29PM 41.4878 -87.7178 184° South 317 365 14,500 3,060 Climbing Chicago Center
02:30PM 41.3861 -87.7258 183° South 353 406 18,100 3,540 Climbing Chicago Center
02:31PM 41.2822 -87.7261 180° South 366 421 21,800 2,340 Climbing Chicago Center
02:32PM 41.1797 -87.7253 180° South 368 423 23,000 540 Climbing Chicago Center
02:33PM 41.0572 -87.7050 173° South 369 425 23,000  Level Chicago Center
02:34PM 40.9539 -87.6908 174° South 371 427 23,000  Level Chicago Center
02:35PM 40.8492 -87.6783 175° South 377 434 23,000  Level Chicago Center
02:36PM 40.7444 -87.6628 174° South 378 435 23,000  Level Chicago Center
02:37PM 40.6397 -87.6489 174° South 380 437 23,000  Level Chicago Center
02:38PM 40.5117 -87.6319 174° South 384 442 23,000  Level Chicago Center
02:39PM 40.4050 -87.6172 174° South 387 445 23,000  Level Chicago Center
02:40PM 40.3000 -87.6044 175° South 382 440 23,000  Level Chicago Center
02:41PM 40.1944 -87.6128 183° South 380 437 23,000  Level Chicago Center
02:42PM 40.0892 -87.5817 167° South 393 452 23,000  Level Indianapolis Center
02:43PM 39.9972 -87.5078 148° Southeast 392 451 23,000  Level Indianapolis Center
02:44PM 39.9100 -87.4206 142° Southeast 395 455 23,000  Level Indianapolis Center
02:45PM 39.8222 -87.3375 144° Southeast 394 453 23,000  Level Indianapolis Center
02:47PM 39.7175 -87.2378 144° Southeast 391 450 23,000  Level Indianapolis Center
02:48PM 39.6297 -87.1547 144° Southeast 391 450 23,000  Level Indianapolis Center
02:49PM 39.5414 -87.0719 144° Southeast 393 452 23,000 -120 Level Indianapolis Center
02:50PM 39.4539 -86.9894 144° Southeast 394 453 22,800 -540 Descending Indianapolis Center
02:51PM 39.3672 -86.9081 144° Southeast 390 449 21,900 -1,020 Descending Indianapolis Center
02:52PM 39.2658 -86.8119 144° Southeast 381 438 20,700 -1,080 Descending Indianapolis Center
02:53PM 39.1822 -86.7342 144° Southeast 376 433 19,700 -840 Descending Indianapolis Center
02:54PM 39.1047 -86.6625 144° Southeast 369 425 19,000 -540 Descending Indianapolis Center
02:55PM 39.0200 -86.5831 144° Southeast 360 414 18,700 -1,260 Descending Indianapolis Center
02:56PM 38.9386 -86.5089 145° Southeast 362 417 16,400 -2,280 Descending Indianapolis Center
02:57PM 38.8442 -86.4219 144° Southeast 355 409 14,100 -1,680 Descending Indianapolis Center
02:58PM 38.7700 -86.3531 144° Southeast 340 391 13,000 -1,080 Descending Indianapolis Center
02:59PM 38.6981 -86.2869 144° Southeast 327 376 11,900 -1,020 Descending Indianapolis Center
03:00PM 38.6228 -86.2272 148° Southeast 319 367 10,900 -1,080 Descending Indianapolis Center
03:01PM 38.5506 -86.1683 147° Southeast 310 357 9,700 -1,380 Descending Indianapolis Center
03:02PM 38.4808 -86.1131 148° Southeast 299 344 8,100 -1,440 Descending Indianapolis Center
03:03PM 38.4139 -86.0586 147° Southeast 288 331 6,800 -1,020 Descending Indianapolis Center
03:04PM 38.3361 -85.9969 148° Southeast 276 318 6,000 -420 Descending Indianapolis Center
03:05PM 38.2725 -85.9458 148° Southeast 271 312 6,000  Level Indianapolis Center
03:06PM 38.2086 -85.8936 147° Southeast 271 312 6,000 -540 Level Indianapolis Center
03:07PM 38.1433 -85.8431 149° Southeast 271 312 5,000 -1,020 Descending Indianapolis Center
03:08PM 38.0825 -85.7967 149° Southeast 266 306 3,900 -1,080 Descending Indianapolis Center
03:09PM 38.0328 -85.7556 147° Southeast 236 272 2,800 -900 Descending Indianapolis Center
03:11PM 38.1000 -85.7167 24° Northeast 149 171 1,500 -780 Descending Louisville TRACON